Time;durP1;ratioP1;P1;durP2;ratioP2;P2;SDS_P1;SDS_P2;PMS_P1;PMS_P2;Temp;Humidity;BMP_temperature;BMP_pressure;BME280_temperature;BME280_humidity;BME280_pressure;Samples;Min_cycle;Max_cycle;Signal;HPM_P1;HPM_P2
2023/08/26 00:01:55;;;;;;;30.90;20.02;;;;;;;16.21;100.00;100900.13;5051687;28;20016;-70
2023/08/26 00:04:21;;;;;;;28.65;19.90;;;;;;;16.16;100.00;100883.81;5037883;28;20083;-70
2023/08/26 00:06:47;;;;;;;28.90;20.40;;;;;;;16.14;100.00;100895.78;5034428;28;20029;-70
2023/08/26 00:09:12;;;;;;;27.40;19.25;;;;;;;16.04;100.00;100899.69;5035049;28;20033;-70
2023/08/26 00:11:38;;;;;;;30.23;18.90;;;;;;;15.94;100.00;100907.31;5036748;28;20021;-70
2023/08/26 00:14:04;;;;;;;26.73;17.75;;;;;;;15.83;100.00;100899.03;5040671;28;20087;-70
2023/08/26 00:16:29;;;;;;;24.50;17.00;;;;;;;15.74;100.00;100896.56;5037332;28;20025;-70
2023/08/26 00:18:55;;;;;;;20.63;14.68;;;;;;;15.63;100.00;100901.69;5033897;28;20119;-70
2023/08/26 00:21:22;;;;;;;20.45;12.82;;;;;;;15.56;100.00;100904.28;5034909;28;20108;-70
2023/08/26 00:23:49;;;;;;;18.92;12.02;;;;;;;15.50;100.00;100900.59;5033627;28;20100;-70
2023/08/26 00:26:16;;;;;;;21.02;11.70;;;;;;;15.46;100.00;100903.88;5034933;28;20025;-70
2023/08/26 00:28:41;;;;;;;22.17;12.95;;;;;;;15.40;100.00;100905.50;5036962;28;20135;-70
2023/08/26 00:31:07;;;;;;;18.05;12.23;;;;;;;15.37;100.00;100905.91;5040089;28;20029;-70
2023/08/26 00:33:32;;;;;;;23.83;11.95;;;;;;;15.31;100.00;100912.03;5036964;28;20029;-69
2023/08/26 00:35:57;;;;;;;16.10;11.13;;;;;;;15.29;100.00;100907.91;5035648;28;20487;-70
2023/08/26 00:38:23;;;;;;;15.05;10.00;;;;;;;15.24;100.00;100905.00;5040459;28;20025;-69
2023/08/26 00:40:48;;;;;;;18.10;10.38;;;;;;;15.18;100.00;100907.47;5036167;28;20076;-70
2023/08/26 00:43:13;;;;;;;17.58;10.48;;;;;;;15.13;100.00;100903.75;5031237;28;20471;-70
2023/08/26 00:45:46;;;;;;;14.13;9.38;;;;;;;15.08;100.00;100907.00;5044986;28;20074;-70
2023/08/26 00:48:12;;;;;;;16.27;9.77;;;;;;;15.02;100.00;100914.97;5035168;28;20088;-69
2023/08/26 00:50:39;;;;;;;16.33;10.00;;;;;;;14.99;100.00;100902.84;5037646;28;20029;-69
2023/08/26 00:53:06;;;;;;;16.70;10.43;;;;;;;14.98;100.00;100905.69;5036463;28;20110;-70
2023/08/26 00:55:32;;;;;;;18.27;9.82;;;;;;;14.96;100.00;100907.75;5041341;28;20079;-70
2023/08/26 00:57:58;;;;;;;17.23;9.98;;;;;;;14.92;100.00;100907.31;5041268;28;20036;-69
2023/08/26 01:00:24;;;;;;;18.17;10.23;;;;;;;14.90;100.00;100909.38;5041125;28;20031;-69
2023/08/26 01:02:49;;;;;;;18.85;10.75;;;;;;;14.88;100.00;100906.06;5045679;28;20032;-70
2023/08/26 01:05:15;;;;;;;17.73;11.82;;;;;;;14.81;100.00;100897.19;5040196;28;20029;-70
2023/08/26 01:07:41;;;;;;;20.67;10.95;;;;;;;14.85;100.00;100903.78;5036828;28;20060;-70
2023/08/26 01:10:07;;;;;;;20.88;10.27;;;;;;;14.83;100.00;100903.16;5040843;28;20099;-70
2023/08/26 01:13:04;;;;;;;19.40;10.23;;;;;;;14.82;100.00;100906.88;5032563;28;20030;-70
2023/08/26 01:15:30;;;;;;;15.88;9.40;;;;;;;14.75;100.00;100898.81;5031435;28;20025;-69
2023/08/26 01:17:56;;;;;;;16.27;9.15;;;;;;;14.70;100.00;100903.06;5041533;28;20029;-69
2023/08/26 01:20:23;;;;;;;13.68;8.10;;;;;;;14.64;100.00;100904.69;5039109;28;20505;-69
2023/08/26 01:22:51;;;;;;;12.85;7.32;;;;;;;14.60;100.00;100913.28;5037721;28;20018;-70
2023/08/26 01:25:17;;;;;;;12.77;7.35;;;;;;;14.50;100.00;100909.13;5035622;28;20037;-70
2023/08/26 01:27:42;;;;;;;17.05;7.28;;;;;;;14.44;100.00;100915.22;5036332;28;20031;-70
2023/08/26 01:30:08;;;;;;;12.73;7.28;;;;;;;14.40;100.00;100916.59;5038982;28;20108;-69
2023/08/26 01:32:52;;;;;;;12.23;6.70;;;;;;;14.35;100.00;100913.69;5032473;28;20490;-69
2023/08/26 01:35:23;;;;;;;13.20;7.05;;;;;;;14.28;100.00;100915.47;5030808;28;20132;-69
2023/08/26 01:37:49;;;;;;;10.00;7.00;;;;;;;14.22;100.00;100913.59;5039563;28;20395;-69
2023/08/26 01:40:18;;;;;;;12.52;6.38;;;;;;;14.14;100.00;100911.84;5034333;28;20022;-69
2023/08/26 01:42:44;;;;;;;11.02;6.55;;;;;;;14.08;100.00;100909.13;5029447;28;20021;-69
2023/08/26 01:45:11;;;;;;;13.48;6.68;;;;;;;14.01;100.00;100914.41;5035375;28;20029;-69
2023/08/26 01:47:37;;;;;;;13.32;6.90;;;;;;;13.95;100.00;100915.19;5030512;28;20495;-70
2023/08/26 01:50:03;;;;;;;10.98;6.05;;;;;;;13.89;100.00;100922.13;5031206;28;20098;-69
2023/08/26 01:52:28;;;;;;;15.90;7.65;;;;;;;13.82;100.00;100915.03;5034490;28;20029;-70
2023/08/26 01:54:53;;;;;;;11.23;6.20;;;;;;;13.76;100.00;100916.63;5031984;28;20112;-69
2023/08/26 01:57:18;;;;;;;15.35;7.13;;;;;;;13.72;100.00;100914.53;5030914;28;20036;-69
2023/08/26 01:59:44;;;;;;;9.52;6.10;;;;;;;13.68;100.00;100918.59;5038464;28;20064;-69
2023/08/26 02:02:09;;;;;;;10.55;6.28;;;;;;;13.61;100.00;100915.88;5037678;28;20033;-69
2023/08/26 02:04:37;;;;;;;12.50;6.50;;;;;;;13.56;100.00;100913.75;5030744;28;20033;-69
2023/08/26 02:07:02;;;;;;;9.85;6.03;;;;;;;13.54;100.00;100914.94;5038028;28;20029;-69
2023/08/26 02:09:28;;;;;;;7.57;5.40;;;;;;;13.50;100.00;100917.16;5031921;28;20021;-69
2023/08/26 02:11:53;;;;;;;11.35;5.53;;;;;;;13.45;100.00;100916.91;5031791;28;20021;-69
2023/08/26 02:14:18;;;;;;;13.63;6.30;;;;;;;13.41;100.00;100918.28;5033977;28;20137;-70
2023/08/26 02:16:44;;;;;;;11.63;5.93;;;;;;;13.38;100.00;100918.69;5032413;28;20021;-70
2023/08/26 02:19:09;;;;;;;10.48;5.68;;;;;;;13.36;100.00;100918.03;5030980;28;20096;-69
2023/08/26 02:21:34;;;;;;;13.02;5.72;;;;;;;13.35;100.00;100923.56;5034519;28;20383;-70
2023/08/26 02:23:59;;;;;;;12.02;5.78;;;;;;;13.30;100.00;100922.28;5028968;28;20021;-70
2023/08/26 02:26:26;;;;;;;11.77;5.75;;;;;;;13.27;100.00;100919.97;5035536;28;20025;-70
2023/08/26 02:28:51;;;;;;;12.07;5.63;;;;;;;13.24;100.00;100917.66;5032927;28;20025;-70
2023/08/26 02:31:16;;;;;;;10.38;6.28;;;;;;;13.20;100.00;100916.38;5041124;28;20029;-70
2023/08/26 02:33:42;;;;;;;9.52;5.07;;;;;;;13.17;100.00;100916.75;5029338;28;20087;-70
2023/08/26 02:36:07;;;;;;;11.63;5.20;;;;;;;13.14;100.00;100922.44;5033410;28;20021;-70
2023/08/26 02:38:32;;;;;;;10.57;4.90;;;;;;;13.10;100.00;100912.34;5029425;28;20040;-69
2023/08/26 02:40:58;;;;;;;11.25;5.18;;;;;;;13.06;100.00;100914.53;5029979;28;20037;-70
2023/08/26 02:43:23;;;;;;;11.07;5.13;;;;;;;13.01;100.00;100912.44;5033932;28;20043;-69
2023/08/26 02:45:53;;;;;;;13.95;5.47;;;;;;;12.96;100.00;100906.81;5030540;28;20036;-70
2023/08/26 02:48:19;;;;;;;13.93;4.53;;;;;;;12.95;100.00;100907.00;5041209;28;20029;-70
2023/08/26 02:50:44;;;;;;;10.25;4.90;;;;;;;12.94;100.00;100910.66;5034502;28;20031;-69
2023/08/26 02:53:09;;;;;;;12.50;4.88;;;;;;;12.92;100.00;100910.84;5042460;28;20392;-70
2023/08/26 02:55:34;;;;;;;9.35;4.53;;;;;;;12.89;100.00;100915.72;5030737;28;20371;-70
2023/08/26 02:58:00;;;;;;;8.05;4.55;;;;;;;12.86;100.00;100908.09;5034575;28;20041;-69
2023/08/26 03:00:25;;;;;;;13.15;5.00;;;;;;;12.83;100.00;100911.16;5032116;28;20654;-69
2023/08/26 03:02:51;;;;;;;10.27;4.88;;;;;;;12.80;100.00;100904.34;5036488;28;20032;-69
2023/08/26 03:05:16;;;;;;;8.88;4.65;;;;;;;12.75;100.00;100903.25;5034932;28;20070;-70
2023/08/26 03:07:41;;;;;;;12.70;4.90;;;;;;;12.74;100.00;100905.09;5033369;28;20021;-70
2023/08/26 03:10:07;;;;;;;12.02;4.78;;;;;;;12.72;100.00;100904.41;5030379;28;20021;-70
2023/08/26 03:12:33;;;;;;;9.13;4.50;;;;;;;12.70;100.00;100906.44;5027951;28;20021;-70
2023/08/26 03:14:58;;;;;;;10.63;4.85;;;;;;;12.70;100.00;100909.91;5029082;28;20029;-70
2023/08/26 03:17:23;;;;;;;9.57;4.50;;;;;;;12.70;100.00;100906.44;5033344;28;20033;-69
2023/08/26 03:19:48;;;;;;;11.48;4.25;;;;;;;12.69;100.00;100908.28;5029104;28;20033;-69
2023/08/26 03:22:14;;;;;;;10.25;4.13;;;;;;;12.66;100.00;100902.47;5027651;28;20030;-70
2023/08/26 03:24:39;;;;;;;8.60;4.38;;;;;;;12.65;100.00;100916.81;5029363;28;20100;-70
2023/08/26 03:27:04;;;;;;;9.15;4.15;;;;;;;12.62;100.00;100917.19;5028433;28;20057;-70
2023/08/26 03:29:30;;;;;;;9.88;4.32;;;;;;;12.61;100.00;100911.03;5033435;28;20048;-70
2023/08/26 03:31:55;;;;;;;10.48;4.07;;;;;;;12.60;100.00;100919.19;5030612;28;20025;-69
2023/08/26 03:34:20;;;;;;;11.05;4.65;;;;;;;12.58;100.00;100914.06;5031111;28;20017;-69
2023/08/26 03:36:46;;;;;;;11.02;4.72;;;;;;;12.54;100.00;100923.41;5029711;28;20065;-69
2023/08/26 03:39:11;;;;;;;11.07;4.13;;;;;;;12.52;100.00;100921.94;5031763;28;20040;-69
2023/08/26 03:41:36;;;;;;;8.70;4.28;;;;;;;12.51;100.00;100925.63;5031298;28;20124;-69
2023/08/26 03:44:04;;;;;;;8.00;4.20;;;;;;;12.48;100.00;100920.66;5035771;28;20033;-70
2023/08/26 03:46:29;;;;;;;9.35;4.40;;;;;;;12.44;100.00;100922.03;5029129;28;20052;-69
2023/08/26 03:48:54;;;;;;;9.82;4.03;;;;;;;12.42;100.00;100922.19;5029734;28;20549;-70
2023/08/26 03:51:20;;;;;;;12.77;4.40;;;;;;;12.40;100.00;100914.38;5030912;28;20398;-69
2023/08/26 03:53:45;;;;;;;12.80;4.25;;;;;;;12.40;100.00;100924.22;5031841;28;20065;-69
2023/08/26 03:56:10;;;;;;;9.57;4.40;;;;;;;12.39;100.00;100928.69;5030951;28;20041;-69
2023/08/26 03:58:35;;;;;;;11.70;4.60;;;;;;;12.38;100.00;100931.56;5028846;28;20041;-69
2023/08/26 04:01:04;;;;;;;9.77;4.22;;;;;;;12.37;100.00;100935.22;5032463;28;20395;-69
2023/08/26 04:03:30;;;;;;;13.55;4.57;;;;;;;12.34;100.00;100927.59;5035809;28;20031;-70
2023/08/26 04:06:04;;;;;;;9.50;4.40;;;;;;;12.33;100.00;100928.59;5037581;28;20021;-70
2023/08/26 04:08:31;;;;;;;8.00;4.60;;;;;;;12.30;100.00;100928.97;5028802;28;20033;-69
2023/08/26 04:10:58;;;;;;;6.97;4.20;;;;;;;12.29;100.00;100935.31;5028730;28;20043;-69
2023/08/26 04:13:28;;;;;;;8.23;4.10;;;;;;;12.26;100.00;100935.66;5032539;28;20075;-70
2023/08/26 04:15:57;;;;;;;9.80;4.38;;;;;;;12.26;100.00;100939.16;5033438;28;20040;-69
2023/08/26 04:18:23;;;;;;;11.18;4.78;;;;;;;12.23;100.00;100944.84;5036864;28;20036;-69
2023/08/26 04:20:49;;;;;;;9.90;4.30;;;;;;;12.23;100.00;100944.84;5035557;28;20029;-69
2023/08/26 04:23:14;;;;;;;8.82;4.10;;;;;;;12.20;100.00;100947.88;5035154;28;20403;-69
2023/08/26 04:25:41;;;;;;;9.40;4.10;;;;;;;12.18;100.00;100955.19;5033611;28;20037;-72
2023/08/26 04:28:06;;;;;;;9.48;4.20;;;;;;;12.15;100.00;100949.41;5036504;28;20032;-69
2023/08/26 04:30:31;;;;;;;10.88;4.40;;;;;;;12.14;100.00;100951.22;5035109;28;20036;-69
2023/08/26 04:32:57;;;;;;;9.60;4.00;;;;;;;12.10;100.00;100953.41;5037056;28;20047;-71
2023/08/26 04:35:23;;;;;;;9.60;4.40;;;;;;;12.10;100.00;100952.56;5034826;28;20488;-66
2023/08/26 04:37:48;;;;;;;10.38;4.45;;;;;;;12.08;100.00;100952.75;5036548;28;20507;-67
2023/08/26 04:40:13;;;;;;;13.05;4.28;;;;;;;12.09;100.00;100959.72;5038450;28;20039;-66
2023/08/26 04:42:39;;;;;;;11.85;4.22;;;;;;;12.09;100.00;100964.22;5042240;28;20392;-67
2023/08/26 04:45:05;;;;;;;10.77;4.60;;;;;;;12.08;100.00;100966.06;5036416;28;20037;-69
2023/08/26 04:47:30;;;;;;;8.82;4.57;;;;;;;12.07;100.00;100967.06;5040235;28;20072;-69
2023/08/26 04:49:56;;;;;;;10.25;4.43;;;;;;;12.07;100.00;100976.91;5033464;28;21908;-69
2023/08/26 04:52:21;;;;;;;6.97;4.30;;;;;;;12.07;100.00;100968.91;5043959;28;20033;-69
2023/08/26 04:54:46;;;;;;;10.00;4.32;;;;;;;12.07;100.00;100976.91;5034994;28;20786;-69
2023/08/26 04:57:12;;;;;;;12.77;4.40;;;;;;;12.06;100.00;100976.06;5043807;28;20037;-69
2023/08/26 04:59:37;;;;;;;8.82;4.25;;;;;;;12.06;100.00;100969.91;5028302;28;20052;-69
2023/08/26 05:02:06;;;;;;;10.20;4.47;;;;;;;12.10;100.00;100976.53;5034807;28;20024;-70
2023/08/26 05:04:31;;;;;;;7.47;4.90;;;;;;;12.07;100.00;100974.22;5035783;28;20030;-69
2023/08/26 05:06:56;;;;;;;10.55;4.65;;;;;;;12.12;100.00;100989.66;5037939;28;20025;-69
2023/08/26 05:09:21;;;;;;;10.25;4.28;;;;;;;12.12;100.00;100992.34;5041410;28;20024;-69
2023/08/26 05:11:47;;;;;;;11.43;4.45;;;;;;;12.14;100.00;100995.63;5037501;28;20360;-69
2023/08/26 05:14:12;;;;;;;10.77;4.70;;;;;;;12.17;100.00;100995.31;5039572;28;20033;-70
2023/08/26 05:16:37;;;;;;;10.60;4.50;;;;;;;12.18;100.00;100988.97;5048310;28;20021;-70
2023/08/26 05:19:02;;;;;;;10.90;4.32;;;;;;;12.20;100.00;100997.63;5036516;28;20565;-69
2023/08/26 05:21:28;;;;;;;7.30;4.38;;;;;;;12.20;100.00;100993.13;5044712;28;20025;-69
2023/08/26 05:23:53;;;;;;;7.95;4.28;;;;;;;12.20;100.00;100990.47;5046247;28;20043;-69
2023/08/26 05:26:18;;;;;;;12.35;4.53;;;;;;;12.22;100.00;100995.59;5039745;28;20029;-69
2023/08/26 05:28:44;;;;;;;11.07;4.35;;;;;;;12.21;100.00;100989.47;5045280;28;20059;-70
2023/08/26 05:31:09;;;;;;;7.32;4.63;;;;;;;12.21;100.00;100989.47;5040738;28;20025;-69
2023/08/26 05:33:34;;;;;;;8.50;4.45;;;;;;;12.26;100.00;100987.09;5044558;28;20025;-70
2023/08/26 05:35:59;;;;;;;9.20;4.20;;;;;;;12.29;100.00;100996.53;5043633;28;20029;-69
2023/08/26 05:38:25;;;;;;;7.25;4.75;;;;;;;12.31;100.00;100999.84;5041396;28;20071;-70
2023/08/26 05:40:50;;;;;;;7.07;4.10;;;;;;;12.31;100.00;100995.34;5037820;28;20140;-69
2023/08/26 05:43:15;;;;;;;5.97;4.00;;;;;;;12.34;100.00;101002.16;5047827;28;20430;-69
2023/08/26 05:45:40;;;;;;;7.97;4.30;;;;;;;12.35;100.00;101003.81;5043293;28;20033;-69
2023/08/26 05:48:06;;;;;;;10.52;4.63;;;;;;;12.38;100.00;100987.47;5030189;28;20055;-69
2023/08/26 05:50:32;;;;;;;9.77;4.38;;;;;;;12.41;100.00;100987.13;5046405;28;20490;-69
2023/08/26 05:52:58;;;;;;;8.27;4.20;;;;;;;12.44;100.00;100983.31;5041997;28;20073;-69
2023/08/26 05:55:23;;;;;;;11.73;4.80;;;;;;;12.48;100.00;100990.75;5046981;28;20049;-69
2023/08/26 05:57:48;;;;;;;7.55;4.13;;;;;;;12.52;100.00;100992.03;5045894;28;20086;-69
2023/08/26 06:00:14;;;;;;;9.68;4.40;;;;;;;12.56;100.00;100987.19;5042913;28;20047;-69
2023/08/26 06:02:39;;;;;;;10.10;4.60;;;;;;;12.60;100.00;100985.81;5039277;28;20115;-69
2023/08/26 06:05:05;;;;;;;10.07;4.30;;;;;;;12.62;100.00;100991.78;5047860;28;20036;-69
2023/08/26 06:07:30;;;;;;;8.07;3.95;;;;;;;12.64;100.00;100989.75;5046980;28;20033;-69
2023/08/26 06:09:55;;;;;;;7.85;3.70;;;;;;;12.66;100.00;100985.91;5042239;28;20021;-69
2023/08/26 06:12:21;;;;;;;10.07;4.32;;;;;;;12.70;100.00;100979.19;5041433;28;20472;-68
2023/08/26 06:14:46;;;;;;;11.77;4.10;;;;;;;12.74;100.00;100976.19;5042608;28;20025;-69
2023/08/26 06:17:11;;;;;;;9.32;4.20;;;;;;;12.78;100.00;100980.16;5043081;28;20028;-69
2023/08/26 06:19:36;;;;;;;13.55;4.15;;;;;;;12.80;100.00;100981.63;5034223;28;20446;-69
2023/08/26 06:22:02;;;;;;;9.63;4.00;;;;;;;12.85;100.00;100976.56;5045382;28;20031;-69
2023/08/26 06:24:28;;;;;;;6.13;3.80;;;;;;;12.90;100.00;100984.03;5047237;28;20444;-69
2023/08/26 06:26:53;;;;;;;7.68;4.32;;;;;;;12.93;100.00;100981.81;5047726;28;20044;-69
2023/08/26 06:29:19;;;;;;;9.25;4.00;;;;;;;12.98;100.00;100984.75;5046653;28;20099;-69
2023/08/26 06:31:45;;;;;;;8.68;4.10;;;;;;;13.03;100.00;100990.41;5043424;28;20603;-69
2023/08/26 06:34:10;;;;;;;7.55;3.92;;;;;;;13.08;100.00;100989.84;5038889;28;20262;-69
2023/08/26 06:36:35;;;;;;;7.38;3.90;;;;;;;13.13;100.00;100997.28;5038259;28;20045;-68
2023/08/26 06:39:01;;;;;;;12.48;3.63;;;;;;;13.19;100.00;100989.41;5046942;28;20597;-69
2023/08/26 06:41:28;;;;;;;6.72;3.70;;;;;;;13.25;100.00;100980.66;5042173;28;20024;-69
2023/08/26 06:43:53;;;;;;;10.38;3.83;;;;;;;13.32;100.00;100981.59;5046912;28;20029;-69
2023/08/26 06:46:18;;;;;;;9.48;4.03;;;;;;;13.39;100.00;100981.69;5040945;28;20040;-69
2023/08/26 06:48:44;;;;;;;10.25;4.03;;;;;;;13.42;100.00;100972.47;5046843;28;20494;-69
2023/08/26 06:51:09;;;;;;;7.85;3.60;;;;;;;13.47;100.00;100968.22;5038737;28;20129;-69
2023/08/26 06:53:35;;;;;;;8.10;3.70;;;;;;;13.55;100.00;100972.63;5038372;28;20100;-69
2023/08/26 06:56:00;;;;;;;10.20;3.67;;;;;;;13.59;100.00;100969.44;5041980;28;20056;-69
2023/08/26 06:58:25;;;;;;;9.63;3.80;;;;;;;13.64;100.00;100971.53;5043697;28;20079;-69
2023/08/26 07:00:52;;;;;;;7.82;3.85;;;;;;;13.70;100.00;100969.94;5047049;28;20060;-69
2023/08/26 07:03:18;;;;;;;8.13;3.60;;;;;;;13.72;100.00;100967.91;5043994;28;20038;-70
2023/08/26 07:05:45;;;;;;;9.35;3.85;;;;;;;13.78;100.00;100964.50;5042273;28;20028;-69
2023/08/26 07:08:11;;;;;;;7.35;3.80;;;;;;;13.88;100.00;100973.88;5042945;28;20664;-69
2023/08/26 07:10:36;;;;;;;8.13;3.58;;;;;;;13.94;100.00;100977.63;5046504;28;20083;-69
2023/08/26 07:13:01;;;;;;;10.88;3.80;;;;;;;13.98;100.00;100980.72;5038795;28;20079;-69
2023/08/26 07:15:26;;;;;;;10.23;3.75;;;;;;;14.05;100.00;100985.13;5048469;28;20016;-69
2023/08/26 07:17:53;;;;;;;7.60;3.53;;;;;;;14.09;100.00;100983.72;5043205;28;20040;-69
2023/08/26 07:20:19;;;;;;;10.43;3.60;;;;;;;14.15;100.00;100980.28;5045469;28;20487;-69
2023/08/26 07:22:44;;;;;;;9.70;3.58;;;;;;;14.23;100.00;100987.38;5038638;28;20048;-69
2023/08/26 07:25:09;;;;;;;11.57;3.90;;;;;;;14.31;100.00;100986.41;5041867;28;20052;-70
2023/08/26 07:27:35;;;;;;;13.40;4.30;;;;;;;14.41;100.00;100989.56;5035037;28;20026;-69
2023/08/26 07:30:00;;;;;;;10.13;3.75;;;;;;;14.47;100.00;100994.19;5037147;28;20423;-70
2023/08/26 07:32:25;;;;;;;9.18;3.65;;;;;;;14.55;100.00;101002.06;5032563;28;20033;-69
2023/08/26 07:34:52;;;;;;;11.63;4.03;;;;;;;14.55;100.00;100981.53;5030124;28;20036;-70
2023/08/26 07:37:17;;;;;;;10.85;3.65;;;;;;;14.62;99.70;100996.78;5042849;28;20376;-69
2023/08/26 07:39:42;;;;;;;8.32;3.90;;;;;;;14.70;100.00;101000.13;5048513;28;20525;-69
2023/08/26 07:42:08;;;;;;;9.30;3.58;;;;;;;14.79;99.60;101004.34;5036524;28;20029;-70
2023/08/26 07:44:33;;;;;;;10.60;3.47;;;;;;;14.95;99.64;100997.84;5048464;28;20079;-70
2023/08/26 07:46:58;;;;;;;8.63;3.40;;;;;;;15.03;99.71;101008.38;5050440;28;20037;-69
2023/08/26 07:49:24;;;;;;;7.63;3.08;;;;;;;15.10;98.71;101001.25;5043481;28;20103;-70
2023/08/26 07:51:49;;;;;;;9.57;3.17;;;;;;;15.13;97.99;101000.88;5044351;28;20076;-69
2023/08/26 07:54:14;;;;;;;6.97;3.17;;;;;;;15.16;97.51;101003.16;5049603;28;20075;-69
2023/08/26 07:56:40;;;;;;;8.57;3.75;;;;;;;15.26;97.10;101009.97;5047010;28;20028;-70
2023/08/26 07:59:05;;;;;;;6.68;3.28;;;;;;;15.29;96.33;101002.38;5051641;28;20024;-69
2023/08/26 08:01:30;;;;;;;10.35;3.53;;;;;;;15.38;96.72;100998.53;5047893;28;20025;-69
2023/08/26 08:03:55;;;;;;;11.90;3.38;;;;;;;15.48;96.77;101006.19;5051740;28;20025;-69
2023/08/26 08:06:21;;;;;;;11.68;3.42;;;;;;;15.60;96.69;101003.78;5046496;28;20057;-69
2023/08/26 08:08:46;;;;;;;9.27;3.30;;;;;;;15.69;95.86;101006.13;5051488;28;20035;-69
2023/08/26 08:11:11;;;;;;;8.30;3.15;;;;;;;15.75;95.41;101009.84;5041245;28;20032;-69
2023/08/26 08:13:36;;;;;;;10.68;3.40;;;;;;;15.79;94.98;101008.41;5043703;28;20082;-70
2023/08/26 08:16:02;;;;;;;6.75;3.72;;;;;;;15.79;94.08;101005.75;5044604;28;20405;-69
2023/08/26 08:18:28;;;;;;;9.82;3.33;;;;;;;15.84;94.06;100997.09;5043845;28;20028;-69
2023/08/26 08:20:53;;;;;;;7.68;3.20;;;;;;;15.92;94.64;101008.47;5044109;28;20171;-70
2023/08/26 08:23:18;;;;;;;9.10;2.90;;;;;;;15.93;94.04;101007.44;5032940;28;20108;-69
2023/08/26 08:25:43;;;;;;;7.85;2.75;;;;;;;16.00;93.48;101007.47;5039253;28;20025;-69
2023/08/26 08:28:09;;;;;;;8.15;2.65;;;;;;;16.02;92.74;100995.50;5045074;28;20031;-69
2023/08/26 08:30:34;;;;;;;11.32;3.00;;;;;;;16.06;92.61;100998.59;5042740;28;20021;-69
2023/08/26 08:32:59;;;;;;;6.70;2.90;;;;;;;16.18;92.25;101005.00;5046429;28;20021;-69
2023/08/26 08:35:25;;;;;;;7.85;3.30;;;;;;;16.28;92.19;101001.97;5036620;28;21458;-69
2023/08/26 08:37:51;;;;;;;7.93;2.75;;;;;;;16.35;92.71;100995.56;5045497;28;20025;-69
2023/08/26 08:40:16;;;;;;;7.63;2.80;;;;;;;16.37;91.66;100992.69;5044028;28;20490;-69
2023/08/26 08:42:42;;;;;;;7.00;2.97;;;;;;;16.45;91.26;100999.69;5040448;28;20064;-69
2023/08/26 08:45:08;;;;;;;7.05;2.83;;;;;;;16.46;90.52;100998.66;5037145;28;20025;-69
2023/08/26 08:47:34;;;;;;;5.68;2.30;;;;;;;16.48;89.88;100997.44;5046349;28;20067;-69
2023/08/26 08:50:00;;;;;;;7.85;2.42;;;;;;;16.52;89.23;101003.22;5043854;28;20025;-69
2023/08/26 08:52:26;;;;;;;4.70;2.40;;;;;;;16.61;88.94;101000.13;5043474;28;20456;-69
2023/08/26 08:54:52;;;;;;;6.85;2.50;;;;;;;16.75;88.87;101000.97;5038732;28;20025;-69
2023/08/26 08:57:22;;;;;;;7.88;2.22;;;;;;;16.79;88.27;101006.78;5045003;28;20028;-69
2023/08/26 08:59:48;;;;;;;5.72;2.22;;;;;;;16.84;87.84;101009.66;5042323;28;20071;-68
2023/08/26 09:02:14;;;;;;;9.35;2.70;;;;;;;16.88;87.31;101009.03;5039190;28;20025;-69
2023/08/26 09:04:41;;;;;;;5.30;2.42;;;;;;;16.99;87.35;101013.75;5042951;28;20028;-69
2023/08/26 09:07:06;;;;;;;6.43;2.00;;;;;;;17.04;86.49;101007.75;5045480;28;20486;-69
2023/08/26 09:09:31;;;;;;;7.25;2.35;;;;;;;17.13;86.44;101019.13;5044007;28;20050;-70
2023/08/26 09:11:58;;;;;;;3.95;2.08;;;;;;;17.18;86.24;101020.13;5049321;28;20482;-69
2023/08/26 09:14:23;;;;;;;4.80;2.00;;;;;;;17.23;86.41;101024.84;5041211;28;20013;-69
2023/08/26 09:16:48;;;;;;;7.68;2.65;;;;;;;17.27;85.21;101024.22;5045237;28;20448;-69
2023/08/26 09:19:14;;;;;;;3.80;2.00;;;;;;;17.30;84.84;101020.28;5037952;28;20060;-69
2023/08/26 09:21:46;;;;;;;4.28;1.60;;;;;;;17.37;84.89;101026.50;5042897;28;20025;-69
2023/08/26 09:24:15;;;;;;;5.25;1.80;;;;;;;17.40;84.46;101030.63;5046865;28;20059;-69
2023/08/26 09:26:41;;;;;;;;;;;;;;;17.41;83.81;101024.22;5032878;28;20025;-69
2023/08/26 09:29:20;;;;;;;3.70;1.50;;;;;;;17.32;83.65;101028.97;5044336;28;19909;-68
2023/08/26 09:31:46;;;;;;;;;;;;;;;17.41;84.55;101029.59;5043757;28;20371;-68
2023/08/26 09:34:11;;;;;;;4.15;1.65;;;;;;;17.50;83.66;101036.38;5041739;28;19924;-68
2023/08/26 09:36:40;;;;;;;5.30;1.67;;;;;;;17.62;82.52;101037.34;5040170;28;20023;-69
2023/08/26 09:39:13;;;;;;;6.30;1.58;;;;;;;17.61;81.88;101033.84;5043005;28;20025;-69
2023/08/26 09:41:40;;;;;;;3.40;1.38;;;;;;;17.57;81.32;101037.16;5046391;28;20092;-69
2023/08/26 09:44:08;;;;;;;4.53;1.40;;;;;;;17.42;80.25;101044.66;5038646;28;20022;-68
2023/08/26 09:46:37;;;;;;;3.45;1.20;;;;;;;17.33;80.25;101038.66;5041502;28;20376;-68
2023/08/26 09:49:03;;;;;;;6.40;1.60;;;;;;;17.32;81.21;101039.69;5047585;28;20063;-69
2023/08/26 09:51:29;;;;;;;5.30;1.98;;;;;;;17.41;81.43;101041.16;5042932;28;20066;-68
2023/08/26 09:53:56;;;;;;;5.90;1.88;;;;;;;17.64;82.07;101044.19;5044836;28;20033;-69
2023/08/26 09:56:23;;;;;;;5.00;1.70;;;;;;;17.85;81.57;101051.13;5049023;28;20029;-69
2023/08/26 09:58:49;;;;;;;3.30;1.75;;;;;;;17.89;80.60;101054.22;5045917;28;20017;-69
2023/08/26 10:01:14;;;;;;;5.88;2.00;;;;;;;17.80;79.97;101050.13;5043399;28;20111;-69
2023/08/26 10:03:44;;;;;;;4.85;2.00;;;;;;;17.74;79.67;101051.81;5039972;28;20024;-68
2023/08/26 10:06:13;;;;;;;4.13;1.50;;;;;;;17.72;78.53;101045.00;5034842;28;20037;-69
2023/08/26 10:08:41;;;;;;;3.92;1.20;;;;;;;17.65;77.97;101040.47;5043170;28;20023;-68
2023/08/26 10:11:07;;;;;;;4.03;1.65;;;;;;;17.69;77.56;101042.75;5037910;28;20033;-68
2023/08/26 10:13:36;;;;;;;4.18;1.60;;;;;;;17.85;78.23;101043.06;5038949;28;20074;-68
2023/08/26 10:16:03;;;;;;;3.30;1.58;;;;;;;17.93;77.36;101044.72;5041053;28;20531;-69
2023/08/26 10:18:47;;;;;;;5.70;1.63;;;;;;;17.99;78.10;101045.72;5040871;28;20025;-69
2023/08/26 10:21:13;;;;;;;4.07;1.40;;;;;;;18.11;78.98;101033.25;5039957;28;20025;-69
2023/08/26 10:23:39;;;;;;;5.07;1.33;;;;;;;18.22;77.58;101049.53;5048879;28;20025;-68
2023/08/26 10:26:06;;;;;;;6.43;1.77;;;;;;;18.29;77.01;101040.59;5047859;28;20493;-69
2023/08/26 10:28:33;;;;;;;2.47;1.27;;;;;;;18.39;77.40;101041.75;5041225;28;20021;-68
2023/08/26 10:30:59;;;;;;;5.20;1.63;;;;;;;18.42;76.78;101037.81;5040803;28;20017;-69
2023/08/26 10:33:24;;;;;;;2.80;1.20;;;;;;;18.57;77.39;101043.72;5044345;28;20016;-68
2023/08/26 10:36:11;;;;;;;3.60;1.10;;;;;;;18.61;75.04;101050.31;5039361;28;20034;-69
2023/08/26 10:38:39;;;;;;;2.40;1.10;;;;;;;18.53;74.08;101034.44;5039310;28;20171;-68
2023/08/26 10:41:11;;;;;;;4.40;1.10;;;;;;;18.55;74.39;101040.41;5045635;28;20021;-69
2023/08/26 10:43:37;;;;;;;4.50;1.10;;;;;;;18.84;76.73;101042.50;5032923;28;20033;-69
2023/08/26 10:46:02;;;;;;;5.03;1.30;;;;;;;18.91;74.48;101047.00;5040406;28;20028;-68
2023/08/26 10:48:28;;;;;;;3.08;1.17;;;;;;;19.06;74.73;101042.06;5040362;28;20063;-69
2023/08/26 10:51:01;;;;;;;3.35;1.05;;;;;;;19.10;73.82;101037.91;5031591;28;20036;-69
2023/08/26 10:53:27;;;;;;;3.13;1.00;;;;;;;18.95;72.58;101032.03;5027540;28;20080;-69
2023/08/26 10:55:53;;;;;;;2.60;1.00;;;;;;;18.98;72.69;101036.97;5035100;28;20564;-68
2023/08/26 10:58:19;;;;;;;1.83;1.10;;;;;;;19.16;73.49;101029.78;5038336;28;20021;-69
2023/08/26 11:00:50;;;;;;;3.30;1.10;;;;;;;19.24;72.65;101030.53;5034277;28;20094;-69
2023/08/26 11:03:22;;;;;;;3.95;0.88;;;;;;;19.27;71.66;101022.81;5033530;28;20544;-66
2023/08/26 11:06:01;;;;;;;2.95;1.15;;;;;;;19.37;71.11;101023.16;5033341;28;20021;-66
2023/08/26 11:08:26;;;;;;;3.25;1.08;;;;;;;19.41;71.05;101021.66;5040151;28;20039;-67
2023/08/26 11:10:52;;;;;;;2.90;1.25;;;;;;;19.42;70.14;101025.16;5035382;28;20025;-66
2023/08/26 11:13:17;;;;;;;2.35;0.90;;;;;;;19.30;69.71;101022.38;5027949;28;20044;-67